sensor_id;sensor_type;location;lat;lon;timestamp;temperature;humidity
45137;DHT22;30894;51.740;19.498;2023-12-22T00:00:13;4.50;99.90
45137;DHT22;30894;51.740;19.498;2023-12-22T00:03:00;4.50;99.90
45137;DHT22;30894;51.740;19.498;2023-12-22T00:05:28;4.40;99.90
45137;DHT22;30894;51.740;19.498;2023-12-22T00:07:55;4.40;99.90
45137;DHT22;30894;51.740;19.498;2023-12-22T00:10:21;4.50;99.90
45137;DHT22;30894;51.740;19.498;2023-12-22T00:12:51;4.50;99.90
45137;DHT22;30894;51.740;19.498;2023-12-22T00:15:17;4.40;99.90
45137;DHT22;30894;51.740;19.498;2023-12-22T00:17:47;4.30;99.90
45137;DHT22;30894;51.740;19.498;2023-12-22T00:20:14;4.30;99.90
45137;DHT22;30894;51.740;19.498;2023-12-22T00:22:41;4.30;99.90
45137;DHT22;30894;51.740;19.498;2023-12-22T00:25:07;4.10;99.90
45137;DHT22;30894;51.740;19.498;2023-12-22T00:27:36;4.10;99.90
45137;DHT22;30894;51.740;19.498;2023-12-22T00:30:02;4.00;99.90
45137;DHT22;30894;51.740;19.498;2023-12-22T00:32:31;4.00;99.90
45137;DHT22;30894;51.740;19.498;2023-12-22T00:34:57;4.00;99.90
45137;DHT22;30894;51.740;19.498;2023-12-22T00:37:25;4.00;99.90
45137;DHT22;30894;51.740;19.498;2023-12-22T00:39:51;4.00;99.90
45137;DHT22;30894;51.740;19.498;2023-12-22T00:42:18;3.90;99.90
45137;DHT22;30894;51.740;19.498;2023-12-22T00:44:44;3.90;99.90
45137;DHT22;30894;51.740;19.498;2023-12-22T00:47:11;3.80;99.90
45137;DHT22;30894;51.740;19.498;2023-12-22T00:49:37;3.80;99.90
45137;DHT22;30894;51.740;19.498;2023-12-22T00:52:04;3.80;99.90
45137;DHT22;30894;51.740;19.498;2023-12-22T00:54:31;3.70;99.90
45137;DHT22;30894;51.740;19.498;2023-12-22T00:56:58;3.70;99.90
45137;DHT22;30894;51.740;19.498;2023-12-22T00:59:25;3.80;99.90
45137;DHT22;30894;51.740;19.498;2023-12-22T01:01:55;3.70;99.90
45137;DHT22;30894;51.740;19.498;2023-12-22T01:04:21;3.60;99.90
45137;DHT22;30894;51.740;19.498;2023-12-22T01:06:48;3.60;99.90
45137;DHT22;30894;51.740;19.498;2023-12-22T01:09:17;3.60;99.90
45137;DHT22;30894;51.740;19.498;2023-12-22T01:11:48;3.60;99.90
45137;DHT22;30894;51.740;19.498;2023-12-22T01:14:14;3.70;99.90
45137;DHT22;30894;51.740;19.498;2023-12-22T01:16:43;3.60;99.90
45137;DHT22;30894;51.740;19.498;2023-12-22T01:19:10;3.60;99.90
45137;DHT22;30894;51.740;19.498;2023-12-22T01:21:37;3.60;99.90
45137;DHT22;30894;51.740;19.498;2023-12-22T01:24:04;3.50;99.90
45137;DHT22;30894;51.740;19.498;2023-12-22T01:26:31;3.50;99.90
45137;DHT22;30894;51.740;19.498;2023-12-22T01:28:58;3.50;99.90
45137;DHT22;30894;51.740;19.498;2023-12-22T01:31:25;3.40;99.90
45137;DHT22;30894;51.740;19.498;2023-12-22T01:33:51;3.40;99.90
45137;DHT22;30894;51.740;19.498;2023-12-22T01:36:18;3.40;99.90
45137;DHT22;30894;51.740;19.498;2023-12-22T01:38:47;3.40;99.90
45137;DHT22;30894;51.740;19.498;2023-12-22T01:41:15;3.50;99.90
45137;DHT22;30894;51.740;19.498;2023-12-22T01:43:46;4.80;99.90
45137;DHT22;30894;51.740;19.498;2023-12-22T01:46:18;3.50;99.90
45137;DHT22;30894;51.740;19.498;2023-12-22T01:48:49;4.10;99.90
45137;DHT22;30894;51.740;19.498;2023-12-22T01:51:16;3.60;99.90
45137;DHT22;30894;51.740;19.498;2023-12-22T01:53:45;3.50;99.90
45137;DHT22;30894;51.740;19.498;2023-12-22T01:56:14;3.30;99.90
45137;DHT22;30894;51.740;19.498;2023-12-22T01:58:40;3.30;99.90
45137;DHT22;30894;51.740;19.498;2023-12-22T02:01:11;3.30;99.90
45137;DHT22;30894;51.740;19.498;2023-12-22T02:03:39;3.20;99.90
45137;DHT22;30894;51.740;19.498;2023-12-22T02:06:07;3.20;99.90
45137;DHT22;30894;51.740;19.498;2023-12-22T02:08:33;3.20;99.90
45137;DHT22;30894;51.740;19.498;2023-12-22T02:11:00;3.70;99.90
45137;DHT22;30894;51.740;19.498;2023-12-22T02:13:26;3.30;99.90
45137;DHT22;30894;51.740;19.498;2023-12-22T02:16:03;3.40;99.90
45137;DHT22;30894;51.740;19.498;2023-12-22T02:18:38;3.40;99.90
45137;DHT22;30894;51.740;19.498;2023-12-22T02:21:09;3.40;99.90
45137;DHT22;30894;51.740;19.498;2023-12-22T02:23:38;3.40;99.90
45137;DHT22;30894;51.740;19.498;2023-12-22T02:26:33;3.50;99.90
45137;DHT22;30894;51.740;19.498;2023-12-22T02:29:04;3.90;99.90
45137;DHT22;30894;51.740;19.498;2023-12-22T02:31:42;3.10;99.90
45137;DHT22;30894;51.740;19.498;2023-12-22T02:34:18;3.50;99.90
45137;DHT22;30894;51.740;19.498;2023-12-22T02:36:48;3.60;99.90
45137;DHT22;30894;51.740;19.498;2023-12-22T02:39:17;3.60;99.90
45137;DHT22;30894;51.740;19.498;2023-12-22T02:41:45;3.60;99.90
45137;DHT22;30894;51.740;19.498;2023-12-22T02:44:16;3.60;99.90
45137;DHT22;30894;51.740;19.498;2023-12-22T02:46:43;3.60;99.90
45137;DHT22;30894;51.740;19.498;2023-12-22T02:49:10;4.30;99.90
45137;DHT22;30894;51.740;19.498;2023-12-22T02:51:37;4.10;99.90
45137;DHT22;30894;51.740;19.498;2023-12-22T02:54:03;3.50;99.90
45137;DHT22;30894;51.740;19.498;2023-12-22T02:56:34;3.50;99.90
45137;DHT22;30894;51.740;19.498;2023-12-22T02:59:03;3.40;99.90
45137;DHT22;30894;51.740;19.498;2023-12-22T03:01:30;3.30;99.90
45137;DHT22;30894;51.740;19.498;2023-12-22T03:03:57;3.40;99.90
45137;DHT22;30894;51.740;19.498;2023-12-22T03:06:23;3.20;99.90
45137;DHT22;30894;51.740;19.498;2023-12-22T03:08:52;3.30;99.90
45137;DHT22;30894;51.740;19.498;2023-12-22T03:11:19;3.30;99.90
45137;DHT22;30894;51.740;19.498;2023-12-22T03:13:45;3.30;99.90
45137;DHT22;30894;51.740;19.498;2023-12-22T03:16:12;3.30;99.90
45137;DHT22;30894;51.740;19.498;2023-12-22T03:18:39;3.20;99.90
45137;DHT22;30894;51.740;19.498;2023-12-22T03:21:07;3.20;99.90
45137;DHT22;30894;51.740;19.498;2023-12-22T03:23:35;3.20;99.90
45137;DHT22;30894;51.740;19.498;2023-12-22T03:26:05;3.20;99.90
45137;DHT22;30894;51.740;19.498;2023-12-22T03:28:36;3.20;99.90
45137;DHT22;30894;51.740;19.498;2023-12-22T03:31:04;3.10;99.90
45137;DHT22;30894;51.740;19.498;2023-12-22T03:33:33;3.20;99.90
45137;DHT22;30894;51.740;19.498;2023-12-22T03:36:01;3.20;99.90
45137;DHT22;30894;51.740;19.498;2023-12-22T03:38:27;3.20;99.90
45137;DHT22;30894;51.740;19.498;2023-12-22T03:40:57;3.20;99.90
45137;DHT22;30894;51.740;19.498;2023-12-22T03:43:23;3.20;99.90
45137;DHT22;30894;51.740;19.498;2023-12-22T03:45:55;3.80;99.90
45137;DHT22;30894;51.740;19.498;2023-12-22T03:48:22;3.20;99.90
45137;DHT22;30894;51.740;19.498;2023-12-22T03:50:52;3.10;99.90
45137;DHT22;30894;51.740;19.498;2023-12-22T03:53:19;3.10;99.90
45137;DHT22;30894;51.740;19.498;2023-12-22T03:55:48;3.00;99.90
45137;DHT22;30894;51.740;19.498;2023-12-22T03:58:14;3.00;99.90
45137;DHT22;30894;51.740;19.498;2023-12-22T04:00:42;2.90;99.90
45137;DHT22;30894;51.740;19.498;2023-12-22T04:03:11;3.40;99.90
45137;DHT22;30894;51.740;19.498;2023-12-22T04:05:40;2.80;99.90
45137;DHT22;30894;51.740;19.498;2023-12-22T04:08:09;2.70;99.90
45137;DHT22;30894;51.740;19.498;2023-12-22T04:10:40;3.40;99.90
45137;DHT22;30894;51.740;19.498;2023-12-22T04:13:09;2.70;99.90
45137;DHT22;30894;51.740;19.498;2023-12-22T04:15:36;2.70;99.90
45137;DHT22;30894;51.740;19.498;2023-12-22T04:18:07;2.60;99.90
45137;DHT22;30894;51.740;19.498;2023-12-22T04:20:34;2.60;99.90
45137;DHT22;30894;51.740;19.498;2023-12-22T04:23:01;2.60;99.90
45137;DHT22;30894;51.740;19.498;2023-12-22T04:25:29;2.70;99.90
45137;DHT22;30894;51.740;19.498;2023-12-22T04:27:56;3.40;99.90
45137;DHT22;30894;51.740;19.498;2023-12-22T04:30:23;2.70;99.90
45137;DHT22;30894;51.740;19.498;2023-12-22T04:32:50;2.70;99.90
45137;DHT22;30894;51.740;19.498;2023-12-22T04:35:17;2.70;99.90
45137;DHT22;30894;51.740;19.498;2023-12-22T04:37:43;2.80;99.90
45137;DHT22;30894;51.740;19.498;2023-12-22T04:40:15;2.80;99.90
45137;DHT22;30894;51.740;19.498;2023-12-22T04:42:43;2.80;99.90
45137;DHT22;30894;51.740;19.498;2023-12-22T04:45:16;3.30;99.90
45137;DHT22;30894;51.740;19.498;2023-12-22T04:47:45;3.20;99.90
45137;DHT22;30894;51.740;19.498;2023-12-22T04:50:12;2.80;99.90
45137;DHT22;30894;51.740;19.498;2023-12-22T04:52:42;2.80;99.90
45137;DHT22;30894;51.740;19.498;2023-12-22T04:55:09;2.80;99.90
45137;DHT22;30894;51.740;19.498;2023-12-22T04:57:35;3.30;99.90
45137;DHT22;30894;51.740;19.498;2023-12-22T05:00:03;2.70;99.90
45137;DHT22;30894;51.740;19.498;2023-12-22T05:02:34;2.60;99.90
45137;DHT22;30894;51.740;19.498;2023-12-22T05:05:01;2.40;99.90
45137;DHT22;30894;51.740;19.498;2023-12-22T05:07:31;2.60;99.90
45137;DHT22;30894;51.740;19.498;2023-12-22T05:10:01;2.60;99.90
45137;DHT22;30894;51.740;19.498;2023-12-22T05:12:29;2.50;99.90
45137;DHT22;30894;51.740;19.498;2023-12-22T05:14:56;2.50;99.90
45137;DHT22;30894;51.740;19.498;2023-12-22T05:17:24;2.60;99.90
45137;DHT22;30894;51.740;19.498;2023-12-22T05:19:51;2.60;99.90
45137;DHT22;30894;51.740;19.498;2023-12-22T05:22:17;2.70;99.90
45137;DHT22;30894;51.740;19.498;2023-12-22T05:24:44;2.40;99.90
45137;DHT22;30894;51.740;19.498;2023-12-22T05:27:10;2.70;99.90
45137;DHT22;30894;51.740;19.498;2023-12-22T05:29:38;2.60;99.90
45137;DHT22;30894;51.740;19.498;2023-12-22T05:32:06;2.60;99.90
45137;DHT22;30894;51.740;19.498;2023-12-22T05:34:34;2.90;99.90
45137;DHT22;30894;51.740;19.498;2023-12-22T05:37:05;2.50;99.90
45137;DHT22;30894;51.740;19.498;2023-12-22T05:39:32;2.20;99.90
45137;DHT22;30894;51.740;19.498;2023-12-22T05:41:59;2.50;99.90
45137;DHT22;30894;51.740;19.498;2023-12-22T05:44:27;2.50;99.90
45137;DHT22;30894;51.740;19.498;2023-12-22T05:47:00;2.30;99.90
45137;DHT22;30894;51.740;19.498;2023-12-22T05:49:27;2.40;99.90
45137;DHT22;30894;51.740;19.498;2023-12-22T05:51:58;3.10;99.90
45137;DHT22;30894;51.740;19.498;2023-12-22T05:54:26;2.30;99.90
45137;DHT22;30894;51.740;19.498;2023-12-22T05:56:54;2.30;99.90
45137;DHT22;30894;51.740;19.498;2023-12-22T05:59:27;1.80;99.90
45137;DHT22;30894;51.740;19.498;2023-12-22T06:01:54;2.40;99.90
45137;DHT22;30894;51.740;19.498;2023-12-22T06:04:26;2.30;99.90
45137;DHT22;30894;51.740;19.498;2023-12-22T06:06:57;2.30;99.90
45137;DHT22;30894;51.740;19.498;2023-12-22T06:09:25;2.20;99.90
45137;DHT22;30894;51.740;19.498;2023-12-22T06:11:52;2.20;99.90
45137;DHT22;30894;51.740;19.498;2023-12-22T06:14:18;2.20;99.90
45137;DHT22;30894;51.740;19.498;2023-12-22T06:16:49;2.20;99.90
45137;DHT22;30894;51.740;19.498;2023-12-22T06:19:17;2.50;99.90
45137;DHT22;30894;51.740;19.498;2023-12-22T06:21:50;2.00;99.90
45137;DHT22;30894;51.740;19.498;2023-12-22T06:24:16;1.90;99.90
45137;DHT22;30894;51.740;19.498;2023-12-22T06:26:54;2.00;99.90
45137;DHT22;30894;51.740;19.498;2023-12-22T06:29:43;1.80;99.90
45137;DHT22;30894;51.740;19.498;2023-12-22T06:32:12;2.00;99.90
45137;DHT22;30894;51.740;19.498;2023-12-22T06:34:45;2.00;99.90
45137;DHT22;30894;51.740;19.498;2023-12-22T06:37:14;2.00;99.90
45137;DHT22;30894;51.740;19.498;2023-12-22T06:39:50;2.10;99.90
45137;DHT22;30894;51.740;19.498;2023-12-22T06:42:16;2.10;99.90
45137;DHT22;30894;51.740;19.498;2023-12-22T06:44:47;2.10;99.90
45137;DHT22;30894;51.740;19.498;2023-12-22T06:47:19;2.10;99.90
45137;DHT22;30894;51.740;19.498;2023-12-22T06:49:47;2.10;99.90
45137;DHT22;30894;51.740;19.498;2023-12-22T06:52:13;2.10;99.90
45137;DHT22;30894;51.740;19.498;2023-12-22T06:54:47;2.10;99.90
45137;DHT22;30894;51.740;19.498;2023-12-22T06:57:19;2.10;99.90
45137;DHT22;30894;51.740;19.498;2023-12-22T06:59:51;2.00;99.90
45137;DHT22;30894;51.740;19.498;2023-12-22T07:02:20;1.90;99.90
45137;DHT22;30894;51.740;19.498;2023-12-22T07:07:38;1.30;99.90
45137;DHT22;30894;51.740;19.498;2023-12-22T07:10:21;1.90;99.90
45137;DHT22;30894;51.740;19.498;2023-12-22T07:12:47;1.80;99.90
45137;DHT22;30894;51.740;19.498;2023-12-22T07:15:21;2.10;99.90
45137;DHT22;30894;51.740;19.498;2023-12-22T07:17:50;1.80;99.90
45137;DHT22;30894;51.740;19.498;2023-12-22T07:20:21;1.60;99.90
45137;DHT22;30894;51.740;19.498;2023-12-22T07:22:49;1.80;99.90
45137;DHT22;30894;51.740;19.498;2023-12-22T07:25:18;1.80;99.90
45137;DHT22;30894;51.740;19.498;2023-12-22T07:27:45;1.80;99.90
45137;DHT22;30894;51.740;19.498;2023-12-22T07:30:22;1.90;99.90
45137;DHT22;30894;51.740;19.498;2023-12-22T07:32:50;2.00;99.90
45137;DHT22;30894;51.740;19.498;2023-12-22T07:35:19;2.00;99.90
45137;DHT22;30894;51.740;19.498;2023-12-22T07:37:49;2.00;99.90
45137;DHT22;30894;51.740;19.498;2023-12-22T07:40:21;2.10;99.90
45137;DHT22;30894;51.740;19.498;2023-12-22T07:42:48;2.00;99.90
45137;DHT22;30894;51.740;19.498;2023-12-22T07:45:19;2.30;99.90
45137;DHT22;30894;51.740;19.498;2023-12-22T07:47:54;2.10;99.90
45137;DHT22;30894;51.740;19.498;2023-12-22T07:50:40;2.20;99.90
45137;DHT22;30894;51.740;19.498;2023-12-22T07:53:31;1.30;99.90
45137;DHT22;30894;51.740;19.498;2023-12-22T07:56:00;3.20;99.90
45137;DHT22;30894;51.740;19.498;2023-12-22T07:58:33;2.50;99.90
45137;DHT22;30894;51.740;19.498;2023-12-22T08:01:04;2.60;99.90
45137;DHT22;30894;51.740;19.498;2023-12-22T08:03:33;3.30;99.90
45137;DHT22;30894;51.740;19.498;2023-12-22T08:06:00;3.00;99.90
45137;DHT22;30894;51.740;19.498;2023-12-22T08:08:33;3.10;99.90
45137;DHT22;30894;51.740;19.498;2023-12-22T08:11:08;3.30;99.90
45137;DHT22;30894;51.740;19.498;2023-12-22T08:13:41;3.40;99.90
45137;DHT22;30894;51.740;19.498;2023-12-22T08:16:09;3.50;99.90
45137;DHT22;30894;51.740;19.498;2023-12-22T08:18:36;3.20;99.90
45137;DHT22;30894;51.740;19.498;2023-12-22T08:21:11;3.60;99.90
45137;DHT22;30894;51.740;19.498;2023-12-22T08:23:44;4.20;99.90
45137;DHT22;30894;51.740;19.498;2023-12-22T08:26:15;3.80;99.90
45137;DHT22;30894;51.740;19.498;2023-12-22T08:29:05;4.00;99.90
45137;DHT22;30894;51.740;19.498;2023-12-22T08:31:34;3.90;99.90
45137;DHT22;30894;51.740;19.498;2023-12-22T08:34:01;3.70;99.90
45137;DHT22;30894;51.740;19.498;2023-12-22T08:36:29;3.50;99.90
45137;DHT22;30894;51.740;19.498;2023-12-22T08:38:55;3.30;99.90
45137;DHT22;30894;51.740;19.498;2023-12-22T08:41:22;3.20;99.90
45137;DHT22;30894;51.740;19.498;2023-12-22T08:43:49;3.20;99.90
45137;DHT22;30894;51.740;19.498;2023-12-22T08:46:17;3.30;99.90
45137;DHT22;30894;51.740;19.498;2023-12-22T08:48:53;3.80;99.90
45137;DHT22;30894;51.740;19.498;2023-12-22T08:51:24;3.70;99.90
45137;DHT22;30894;51.740;19.498;2023-12-22T08:53:55;4.10;99.90
45137;DHT22;30894;51.740;19.498;2023-12-22T08:56:24;4.00;99.90
45137;DHT22;30894;51.740;19.498;2023-12-22T08:58:54;3.90;99.90
45137;DHT22;30894;51.740;19.498;2023-12-22T09:01:36;3.80;99.90
45137;DHT22;30894;51.740;19.498;2023-12-22T09:04:03;3.70;99.90
45137;DHT22;30894;51.740;19.498;2023-12-22T09:06:30;3.70;99.90
45137;DHT22;30894;51.740;19.498;2023-12-22T09:09:09;3.60;99.90
45137;DHT22;30894;51.740;19.498;2023-12-22T09:11:39;3.60;99.90
45137;DHT22;30894;51.740;19.498;2023-12-22T09:14:09;3.20;99.90
45137;DHT22;30894;51.740;19.498;2023-12-22T09:16:39;3.80;99.90
45137;DHT22;30894;51.740;19.498;2023-12-22T09:19:06;3.60;99.90
45137;DHT22;30894;51.740;19.498;2023-12-22T09:21:40;3.70;99.90
45137;DHT22;30894;51.740;19.498;2023-12-22T09:24:44;3.20;99.90
45137;DHT22;30894;51.740;19.498;2023-12-22T09:27:14;3.60;99.90
45137;DHT22;30894;51.740;19.498;2023-12-22T09:29:41;3.10;99.90
45137;DHT22;30894;51.740;19.498;2023-12-22T09:32:17;2.80;99.90
45137;DHT22;30894;51.740;19.498;2023-12-22T09:35:06;2.50;99.90
45137;DHT22;30894;51.740;19.498;2023-12-22T09:37:34;2.30;99.90
45137;DHT22;30894;51.740;19.498;2023-12-22T09:40:00;1.60;99.90
45137;DHT22;30894;51.740;19.498;2023-12-22T09:42:43;1.90;99.90
45137;DHT22;30894;51.740;19.498;2023-12-22T09:45:16;1.80;99.90
45137;DHT22;30894;51.740;19.498;2023-12-22T09:48:03;1.70;99.90
45137;DHT22;30894;51.740;19.498;2023-12-22T09:50:36;1.40;99.90
45137;DHT22;30894;51.740;19.498;2023-12-22T09:53:08;1.60;99.90
45137;DHT22;30894;51.740;19.498;2023-12-22T09:55:45;1.90;99.90
45137;DHT22;30894;51.740;19.498;2023-12-22T09:58:15;1.00;99.90
45137;DHT22;30894;51.740;19.498;2023-12-22T10:00:43;1.40;99.90
45137;DHT22;30894;51.740;19.498;2023-12-22T10:03:11;1.40;99.90
45137;DHT22;30894;51.740;19.498;2023-12-22T10:05:40;1.40;99.90
45137;DHT22;30894;51.740;19.498;2023-12-22T10:08:08;1.50;99.90
45137;DHT22;30894;51.740;19.498;2023-12-22T10:10:41;1.60;99.90
45137;DHT22;30894;51.740;19.498;2023-12-22T10:13:28;1.70;99.90
45137;DHT22;30894;51.740;19.498;2023-12-22T10:15:57;1.60;99.90
45137;DHT22;30894;51.740;19.498;2023-12-22T10:18:25;1.70;99.90
45137;DHT22;30894;51.740;19.498;2023-12-22T10:20:51;1.80;99.90
45137;DHT22;30894;51.740;19.498;2023-12-22T10:23:31;1.90;99.90
45137;DHT22;30894;51.740;19.498;2023-12-22T10:26:21;1.90;99.90
45137;DHT22;30894;51.740;19.498;2023-12-22T10:28:50;1.90;99.90
45137;DHT22;30894;51.740;19.498;2023-12-22T10:31:20;2.20;99.90
45137;DHT22;30894;51.740;19.498;2023-12-22T10:33:50;2.00;99.90
45137;DHT22;30894;51.740;19.498;2023-12-22T10:36:17;2.00;99.90
45137;DHT22;30894;51.740;19.498;2023-12-22T10:38:44;2.30;99.90
45137;DHT22;30894;51.740;19.498;2023-12-22T10:41:11;2.10;99.90
45137;DHT22;30894;51.740;19.498;2023-12-22T10:43:41;2.10;99.90
45137;DHT22;30894;51.740;19.498;2023-12-22T10:46:08;2.10;99.90
45137;DHT22;30894;51.740;19.498;2023-12-22T10:48:35;2.10;99.90
45137;DHT22;30894;51.740;19.498;2023-12-22T10:51:09;2.50;99.90
45137;DHT22;30894;51.740;19.498;2023-12-22T10:53:48;1.90;99.90
45137;DHT22;30894;51.740;19.498;2023-12-22T10:56:14;1.90;99.90
45137;DHT22;30894;51.740;19.498;2023-12-22T10:58:48;1.40;99.90
45137;DHT22;30894;51.740;19.498;2023-12-22T11:01:17;1.60;99.90
45137;DHT22;30894;51.740;19.498;2023-12-22T11:03:50;2.10;99.90
45137;DHT22;30894;51.740;19.498;2023-12-22T11:06:22;1.40;99.90
45137;DHT22;30894;51.740;19.498;2023-12-22T11:08:56;1.40;99.90
45137;DHT22;30894;51.740;19.498;2023-12-22T11:11:30;1.40;99.90
45137;DHT22;30894;51.740;19.498;2023-12-22T11:14:06;1.50;99.90
45137;DHT22;30894;51.740;19.498;2023-12-22T11:16:36;1.60;99.90
45137;DHT22;30894;51.740;19.498;2023-12-22T11:19:08;1.70;99.90
45137;DHT22;30894;51.740;19.498;2023-12-22T11:22:05;1.70;99.90
45137;DHT22;30894;51.740;19.498;2023-12-22T11:24:37;1.80;99.90
45137;DHT22;30894;51.740;19.498;2023-12-22T11:27:04;1.90;99.90
45137;DHT22;30894;51.740;19.498;2023-12-22T11:29:36;1.90;99.90
45137;DHT22;30894;51.740;19.498;2023-12-22T11:32:04;1.90;99.90
45137;DHT22;30894;51.740;19.498;2023-12-22T11:34:32;1.90;99.90
45137;DHT22;30894;51.740;19.498;2023-12-22T11:37:04;2.00;99.90
45137;DHT22;30894;51.740;19.498;2023-12-22T11:39:34;2.00;99.90
45137;DHT22;30894;51.740;19.498;2023-12-22T11:42:01;2.00;99.90
45137;DHT22;30894;51.740;19.498;2023-12-22T11:44:30;2.00;99.90
45137;DHT22;30894;51.740;19.498;2023-12-22T11:47:07;2.10;99.90
45137;DHT22;30894;51.740;19.498;2023-12-22T11:49:40;2.10;99.90
45137;DHT22;30894;51.740;19.498;2023-12-22T11:52:16;2.60;99.90
45137;DHT22;30894;51.740;19.498;2023-12-22T11:55:04;2.40;99.90
45137;DHT22;30894;51.740;19.498;2023-12-22T11:57:31;2.10;99.90
45137;DHT22;30894;51.740;19.498;2023-12-22T12:00:40;2.00;99.90
45137;DHT22;30894;51.740;19.498;2023-12-22T12:03:07;2.60;99.90
45137;DHT22;30894;51.740;19.498;2023-12-22T12:05:37;2.10;99.90
45137;DHT22;30894;51.740;19.498;2023-12-22T12:08:09;2.00;99.90
45137;DHT22;30894;51.740;19.498;2023-12-22T12:13:22;1.90;99.90
45137;DHT22;30894;51.740;19.498;2023-12-22T12:15:55;1.80;99.90
45137;DHT22;30894;51.740;19.498;2023-12-22T12:18:29;1.80;99.90
45137;DHT22;30894;51.740;19.498;2023-12-22T12:20:57;1.70;99.90
45137;DHT22;30894;51.740;19.498;2023-12-22T12:23:27;1.60;99.90
45137;DHT22;30894;51.740;19.498;2023-12-22T12:25:58;1.60;99.90
45137;DHT22;30894;51.740;19.498;2023-12-22T12:28:31;1.20;99.90
45137;DHT22;30894;51.740;19.498;2023-12-22T12:31:03;1.50;99.90
45137;DHT22;30894;51.740;19.498;2023-12-22T12:33:35;1.70;99.90
45137;DHT22;30894;51.740;19.498;2023-12-22T12:36:10;1.40;99.90
45137;DHT22;30894;51.740;19.498;2023-12-22T12:39:28;1.40;99.90
45137;DHT22;30894;51.740;19.498;2023-12-22T12:41:43;1.30;99.90
45137;DHT22;30894;51.740;19.498;2023-12-22T12:44:16;1.60;99.90
45137;DHT22;30894;51.740;19.498;2023-12-22T12:46:44;1.80;99.90
45137;DHT22;30894;51.740;19.498;2023-12-22T12:49:11;1.50;99.90
45137;DHT22;30894;51.740;19.498;2023-12-22T12:51:46;1.20;99.90
45137;DHT22;30894;51.740;19.498;2023-12-22T12:54:15;1.20;99.90
45137;DHT22;30894;51.740;19.498;2023-12-22T12:56:46;1.20;99.90
45137;DHT22;30894;51.740;19.498;2023-12-22T12:59:15;1.20;99.90
45137;DHT22;30894;51.740;19.498;2023-12-22T13:01:48;1.20;99.90
45137;DHT22;30894;51.740;19.498;2023-12-22T13:04:15;1.90;99.90
45137;DHT22;30894;51.740;19.498;2023-12-22T13:09:12;1.20;99.90
45137;DHT22;30894;51.740;19.498;2023-12-22T13:11:40;1.20;99.90
45137;DHT22;30894;51.740;19.498;2023-12-22T13:14:09;1.30;99.90
45137;DHT22;30894;51.740;19.498;2023-12-22T13:16:38;1.30;99.90
45137;DHT22;30894;51.740;19.498;2023-12-22T13:19:06;1.40;99.90
45137;DHT22;30894;51.740;19.498;2023-12-22T13:21:34;1.40;99.90
45137;DHT22;30894;51.740;19.498;2023-12-22T13:24:16;1.40;99.90
45137;DHT22;30894;51.740;19.498;2023-12-22T13:26:57;1.50;99.90
45137;DHT22;30894;51.740;19.498;2023-12-22T13:29:28;1.60;99.90
45137;DHT22;30894;51.740;19.498;2023-12-22T13:31:55;2.30;99.90
45137;DHT22;30894;51.740;19.498;2023-12-22T13:34:23;1.80;99.90
45137;DHT22;30894;51.740;19.498;2023-12-22T13:36:51;1.80;99.90
45137;DHT22;30894;51.740;19.498;2023-12-22T13:39:27;2.50;99.90
45137;DHT22;30894;51.740;19.498;2023-12-22T13:41:55;2.30;99.90
45137;DHT22;30894;51.740;19.498;2023-12-22T13:44:23;2.60;99.90
45137;DHT22;30894;51.740;19.498;2023-12-22T13:46:53;2.70;99.90
45137;DHT22;30894;51.740;19.498;2023-12-22T13:49:22;2.10;99.90
45137;DHT22;30894;51.740;19.498;2023-12-22T13:51:51;2.20;99.90
45137;DHT22;30894;51.740;19.498;2023-12-22T13:54:32;2.20;99.90
45137;DHT22;30894;51.740;19.498;2023-12-22T13:57:07;2.20;99.90
45137;DHT22;30894;51.740;19.498;2023-12-22T13:59:49;2.10;99.90
45137;DHT22;30894;51.740;19.498;2023-12-22T14:02:21;2.30;99.90
45137;DHT22;30894;51.740;19.498;2023-12-22T14:04:52;2.60;99.90
45137;DHT22;30894;51.740;19.498;2023-12-22T14:07:19;2.30;99.90
45137;DHT22;30894;51.740;19.498;2023-12-22T14:09:48;2.10;99.90
45137;DHT22;30894;51.740;19.498;2023-12-22T14:12:16;2.40;99.90
45137;DHT22;30894;51.740;19.498;2023-12-22T14:14:59;2.30;99.90
45137;DHT22;30894;51.740;19.498;2023-12-22T14:17:26;2.40;99.90
45137;DHT22;30894;51.740;19.498;2023-12-22T14:20:03;2.30;99.90
45137;DHT22;30894;51.740;19.498;2023-12-22T14:22:41;2.30;99.90
45137;DHT22;30894;51.740;19.498;2023-12-22T14:25:08;2.40;99.90
45137;DHT22;30894;51.740;19.498;2023-12-22T14:27:46;2.30;99.90
45137;DHT22;30894;51.740;19.498;2023-12-22T14:30:23;2.00;99.90
45137;DHT22;30894;51.740;19.498;2023-12-22T14:32:51;2.80;99.90
45137;DHT22;30894;51.740;19.498;2023-12-22T14:35:19;2.40;99.90
45137;DHT22;30894;51.740;19.498;2023-12-22T14:37:51;2.40;99.90
45137;DHT22;30894;51.740;19.498;2023-12-22T14:40:18;2.40;99.90
45137;DHT22;30894;51.740;19.498;2023-12-22T14:42:52;2.40;99.90
45137;DHT22;30894;51.740;19.498;2023-12-22T14:45:20;2.50;99.90
45137;DHT22;30894;51.740;19.498;2023-12-22T14:47:50;2.90;99.90
45137;DHT22;30894;51.740;19.498;2023-12-22T14:50:25;2.20;99.90
45137;DHT22;30894;51.740;19.498;2023-12-22T14:52:51;2.60;99.90
45137;DHT22;30894;51.740;19.498;2023-12-22T14:55:18;2.00;99.90
45137;DHT22;30894;51.740;19.498;2023-12-22T14:57:49;2.50;99.90
45137;DHT22;30894;51.740;19.498;2023-12-22T15:00:15;2.50;99.90
45137;DHT22;30894;51.740;19.498;2023-12-22T15:02:45;2.40;99.90
45137;DHT22;30894;51.740;19.498;2023-12-22T15:05:13;2.40;99.90
45137;DHT22;30894;51.740;19.498;2023-12-22T15:07:41;2.40;99.90
45137;DHT22;30894;51.740;19.498;2023-12-22T15:10:11;2.40;99.90
45137;DHT22;30894;51.740;19.498;2023-12-22T15:12:39;2.40;99.90
45137;DHT22;30894;51.740;19.498;2023-12-22T15:15:09;2.40;99.90
45137;DHT22;30894;51.740;19.498;2023-12-22T15:17:37;2.50;99.90
45137;DHT22;30894;51.740;19.498;2023-12-22T15:20:05;2.40;99.90
45137;DHT22;30894;51.740;19.498;2023-12-22T15:22:49;2.50;99.90
45137;DHT22;30894;51.740;19.498;2023-12-22T15:25:16;2.50;99.90
45137;DHT22;30894;51.740;19.498;2023-12-22T15:27:49;2.50;99.90
45137;DHT22;30894;51.740;19.498;2023-12-22T15:30:16;3.10;99.90
45137;DHT22;30894;51.740;19.498;2023-12-22T15:32:44;2.50;99.90
45137;DHT22;30894;51.740;19.498;2023-12-22T15:35:12;2.50;99.90
45137;DHT22;30894;51.740;19.498;2023-12-22T15:37:41;2.50;99.90
45137;DHT22;30894;51.740;19.498;2023-12-22T15:40:15;2.50;99.90
45137;DHT22;30894;51.740;19.498;2023-12-22T15:42:42;2.10;99.90
45137;DHT22;30894;51.740;19.498;2023-12-22T15:45:10;2.50;99.90
45137;DHT22;30894;51.740;19.498;2023-12-22T15:47:37;2.50;99.90
45137;DHT22;30894;51.740;19.498;2023-12-22T15:50:13;2.50;99.90
45137;DHT22;30894;51.740;19.498;2023-12-22T15:52:45;2.50;99.90
45137;DHT22;30894;51.740;19.498;2023-12-22T15:55:16;2.40;99.90
45137;DHT22;30894;51.740;19.498;2023-12-22T15:57:43;2.50;99.90